Time;durP1;ratioP1;P1;durP2;ratioP2;P2;SDS_P1;SDS_P2;PMS_P1;PMS_P2;Temp;Humidity;BMP_temperature;BMP_pressure;BME280_temperature;BME280_humidity;BME280_pressure;Samples;Min_cycle;Max_cycle;Signal;HPM_P1;HPM_P2
2023/05/12 00:00:55;;;;;;;5.93;4.22;;;;;;;9.26;56.68;95280.28;4994420;28;20033;-80
2023/05/12 00:03:21;;;;;;;3.20;2.58;;;;;;;9.89;54.20;95270.41;4994835;28;20065;-81
2023/05/12 00:05:46;;;;;;;4.47;3.85;;;;;;;9.66;55.73;95279.28;4994350;28;20033;-81
2023/05/12 00:08:11;;;;;;;2.85;2.63;;;;;;;9.69;55.82;95279.72;4991615;28;20044;-81
2023/05/12 00:10:37;;;;;;;4.03;2.90;;;;;;;10.40;54.25;95279.53;4992703;28;20037;-81
2023/05/12 00:13:02;;;;;;;3.83;3.00;;;;;;;10.81;52.75;95286.16;4989882;28;20031;-81
2023/05/12 00:15:28;;;;;;;3.10;2.80;;;;;;;11.02;52.24;95288.03;4993526;28;20245;-81
2023/05/12 00:17:53;;;;;;;2.90;2.60;;;;;;;11.25;52.12;95285.19;4992726;28;20033;-81
2023/05/12 00:20:18;;;;;;;5.60;3.50;;;;;;;11.10;51.00;95279.94;4990021;28;20022;-81
2023/05/12 00:22:44;;;;;;;3.33;3.03;;;;;;;11.11;51.53;95273.59;4993786;28;20398;-81
2023/05/12 00:25:09;;;;;;;2.58;2.33;;;;;;;11.37;50.69;95282.88;4992470;28;20589;-80
2023/05/12 00:27:35;;;;;;;3.45;2.85;;;;;;;11.44;50.22;95274.09;4991039;28;20232;-80
2023/05/12 00:30:00;;;;;;;1.92;1.83;;;;;;;11.50;49.94;95273.31;4994444;28;20030;-80
2023/05/12 00:32:26;;;;;;;3.22;2.55;;;;;;;11.53;50.34;95270.28;4994743;28;20125;-80
2023/05/12 00:34:53;;;;;;;2.10;1.90;;;;;;;11.55;49.57;95273.56;4997495;28;20332;-80
2023/05/12 00:37:18;;;;;;;3.45;1.70;;;;;;;11.55;49.53;95276.22;4982142;28;20038;-80
2023/05/12 00:39:43;;;;;;;2.78;2.47;;;;;;;11.54;50.01;95277.25;4998398;28;20041;-81
2023/05/12 00:42:10;;;;;;;2.20;2.10;;;;;;;11.55;49.77;95278.91;4998385;28;20038;-81
2023/05/12 00:44:36;;;;;;;4.35;2.25;;;;;;;11.60;49.69;95278.31;4999250;28;20057;-80
2023/05/12 00:47:02;;;;;;;2.97;2.42;;;;;;;11.60;49.46;95265.00;4999323;28;20742;-81
2023/05/12 00:49:27;;;;;;;3.50;1.83;;;;;;;11.60;49.77;95273.81;4981327;28;20030;-81
2023/05/12 00:51:54;;;;;;;3.10;2.22;;;;;;;11.54;50.03;95274.59;5000063;28;20136;-80
2023/05/12 00:54:20;;;;;;;2.33;2.13;;;;;;;11.59;49.86;95268.69;4997604;28;20037;-80
2023/05/12 00:56:45;;;;;;;2.17;1.98;;;;;;;11.61;50.19;95267.47;4981489;28;20030;-79
2023/05/12 00:59:11;;;;;;;2.33;2.13;;;;;;;11.61;50.03;95264.81;4981719;28;20037;-80
2023/05/12 01:01:36;;;;;;;2.90;2.20;;;;;;;11.68;49.63;95270.19;4998534;28;20049;-80
2023/05/12 01:04:02;;;;;;;3.10;2.20;;;;;;;11.70;49.72;95259.31;4963888;28;20061;-80
2023/05/12 01:07:04;;;;;;;3.00;2.28;;;;;;;11.73;49.79;95269.63;4997549;28;20041;-80
2023/05/12 01:09:30;;;;;;;3.35;2.88;;;;;;;11.80;49.45;95258.97;4994408;28;20038;-80
2023/05/12 01:11:55;;;;;;;3.92;2.40;;;;;;;11.82;49.44;95260.44;4998966;28;20040;-80
2023/05/12 01:14:20;;;;;;;5.45;3.42;;;;;;;11.72;48.89;95258.09;4998376;28;20038;-81
2023/05/12 01:16:51;;;;;;;2.67;2.42;;;;;;;11.73;48.79;95257.09;4996114;28;20485;-80
2023/05/12 01:19:27;;;;;;;9.35;2.20;;;;;;;11.69;48.42;95250.50;4997431;28;20045;-81
2023/05/12 01:21:52;;;;;;;4.00;2.38;;;;;;;11.63;48.74;95254.75;4996078;28;20065;-81
2023/05/12 01:24:18;;;;;;;4.18;2.58;;;;;;;11.50;49.29;95254.66;4998708;28;20048;-81
2023/05/12 01:26:43;;;;;;;2.33;2.17;;;;;;;11.58;48.97;95257.19;4997301;28;20096;-81
2023/05/12 01:29:09;;;;;;;2.45;2.05;;;;;;;11.26;49.33;95257.53;4980421;28;20030;-80
2023/05/12 01:31:34;;;;;;;2.70;2.50;;;;;;;11.34;49.36;95255.75;4980005;28;20470;-81
2023/05/12 01:33:59;;;;;;;2.08;1.98;;;;;;;11.37;49.19;95252.72;4993239;28;20088;-81
2023/05/12 01:36:25;;;;;;;2.50;2.30;;;;;;;11.35;49.40;95255.56;4997259;28;20026;-81
2023/05/12 01:38:50;;;;;;;2.65;2.45;;;;;;;11.37;49.34;95258.88;4997597;28;20554;-81
2023/05/12 01:41:16;;;;;;;2.42;1.80;;;;;;;11.44;48.87;95255.44;4980698;28;20041;-80
2023/05/12 01:43:41;;;;;;;4.57;1.77;;;;;;;11.48;49.01;95259.34;4998071;28;20033;-81
2023/05/12 01:46:06;;;;;;;1.52;1.42;;;;;;;11.38;49.07;95260.53;4995954;28;20485;-81
2023/05/12 01:48:32;;;;;;;3.75;2.30;;;;;;;11.37;49.22;95258.88;4997269;28;20434;-81
2023/05/12 01:51:00;;;;;;;2.20;2.00;;;;;;;11.20;49.21;95252.97;4980246;28;20034;-81
2023/05/12 01:53:26;;;;;;;5.38;1.50;;;;;;;11.24;49.79;95258.75;4998162;28;20076;-80
2023/05/12 01:55:51;;;;;;;1.10;1.10;;;;;;;11.22;49.30;95258.13;4981027;28;20026;-81
2023/05/12 01:58:19;;;;;;;3.35;1.95;;;;;;;11.15;49.45;95258.03;4997150;28;20450;-81
2023/05/12 02:00:44;;;;;;;1.50;1.17;;;;;;;11.19;49.41;95261.16;4996952;28;20076;-80
2023/05/12 02:03:09;;;;;;;1.63;1.52;;;;;;;11.12;49.31;95266.44;4998607;28;20057;-81
2023/05/12 02:05:35;;;;;;;3.35;2.38;;;;;;;11.06;49.82;95262.66;4998246;28;20029;-81
2023/05/12 02:08:00;;;;;;;1.73;1.63;;;;;;;10.87;50.30;95267.59;4996649;28;20382;-81
2023/05/12 02:10:26;;;;;;;6.03;2.03;;;;;;;11.05;50.06;95258.31;4996203;28;20168;-81
2023/05/12 02:12:52;;;;;;;2.10;1.90;;;;;;;10.88;50.09;95258.56;4997808;28;20034;-80
2023/05/12 02:15:17;;;;;;;4.00;1.98;;;;;;;11.03;49.47;95263.03;4996858;28;20280;-81
2023/05/12 02:17:42;;;;;;;2.03;1.90;;;;;;;11.09;49.81;95262.28;4995863;28;20050;-81
2023/05/12 02:20:10;;;;;;;3.63;2.85;;;;;;;10.85;49.80;95269.59;4998654;28;20395;-81
2023/05/12 02:22:36;;;;;;;2.28;2.05;;;;;;;10.90;49.95;95269.03;4997839;28;20072;-81
2023/05/12 02:25:01;;;;;;;2.42;1.90;;;;;;;11.04;49.84;95263.84;4998069;28;20573;-81
2023/05/12 02:27:27;;;;;;;4.07;2.33;;;;;;;10.70;50.07;95266.16;4996646;28;20037;-81
2023/05/12 02:29:52;;;;;;;3.85;1.98;;;;;;;10.49;51.36;95268.59;4997579;28;20691;-81
2023/05/12 02:32:18;;;;;;;1.50;1.40;;;;;;;10.91;49.90;95272.53;4996337;28;20053;-81
2023/05/12 02:34:44;;;;;;;2.15;1.95;;;;;;;10.90;49.79;95269.03;4995577;28;20551;-81
2023/05/12 02:37:10;;;;;;;3.83;2.15;;;;;;;10.75;50.25;95271.75;4996402;28;20030;-81
2023/05/12 02:39:35;;;;;;;2.75;1.85;;;;;;;10.73;50.24;95263.13;4998711;28;20399;-81
2023/05/12 02:42:00;;;;;;;3.67;2.40;;;;;;;10.72;50.16;95264.13;4998216;28;20522;-81
2023/05/12 02:44:26;;;;;;;3.03;2.30;;;;;;;10.64;50.43;95269.56;4996784;28;20041;-81
2023/05/12 02:46:52;;;;;;;3.08;2.67;;;;;;;10.55;50.39;95266.19;4998161;28;20034;-81
2023/05/12 02:49:17;;;;;;;2.80;2.60;;;;;;;10.60;50.58;95261.13;4996879;28;20026;-81
2023/05/12 02:51:42;;;;;;;5.95;2.53;;;;;;;10.51;50.71;95257.78;4998559;28;20169;-81
2023/05/12 02:54:08;;;;;;;5.72;2.60;;;;;;;10.52;50.64;95256.75;4997774;28;20269;-81
2023/05/12 02:56:33;;;;;;;2.70;2.50;;;;;;;10.53;50.54;95260.22;4996104;28;20373;-81
2023/05/12 02:58:58;;;;;;;4.40;2.80;;;;;;;10.50;50.60;95264.06;4997290;28;20037;-81
2023/05/12 03:01:24;;;;;;;3.03;2.70;;;;;;;10.49;50.52;95257.94;4996429;28;20208;-80
2023/05/12 03:03:49;;;;;;;3.20;2.90;;;;;;;10.25;51.17;95269.72;4996470;28;20057;-81
2023/05/12 03:06:15;;;;;;;5.85;2.70;;;;;;;10.32;50.87;95260.00;4996625;28;20139;-80
2023/05/12 03:08:40;;;;;;;3.22;2.85;;;;;;;10.08;51.57;95253.94;4997413;28;20033;-81
2023/05/12 03:11:06;;;;;;;4.40;2.78;;;;;;;10.19;50.85;95252.66;4999048;28;20030;-81
2023/05/12 03:13:32;;;;;;;3.92;3.08;;;;;;;9.75;51.86;95259.56;4996011;28;20549;-80
2023/05/12 03:16:00;;;;;;;3.22;2.92;;;;;;;10.22;51.14;95260.28;4997807;28;20338;-80
2023/05/12 03:18:26;;;;;;;3.17;2.88;;;;;;;10.15;51.12;95261.19;4997638;28;20068;-81
2023/05/12 03:20:51;;;;;;;6.68;3.20;;;;;;;9.94;51.72;95266.22;4997435;28;20542;-79
2023/05/12 03:23:17;;;;;;;3.05;2.60;;;;;;;10.09;51.42;95258.25;4996045;28;20037;-81
2023/05/12 03:25:42;;;;;;;4.45;2.97;;;;;;;10.04;51.32;95265.94;4996084;28;20042;-80
2023/05/12 03:28:08;;;;;;;4.15;3.08;;;;;;;10.12;51.31;95259.72;4997027;28;20057;-81
2023/05/12 03:30:33;;;;;;;6.35;2.97;;;;;;;10.01;51.35;95253.00;4996839;28;20041;-81
2023/05/12 03:32:59;;;;;;;3.45;2.90;;;;;;;9.92;51.77;95254.06;4997124;28;20038;-80
2023/05/12 03:35:24;;;;;;;4.15;2.92;;;;;;;10.03;51.34;95253.63;4997579;28;20034;-81
2023/05/12 03:37:49;;;;;;;4.93;3.15;;;;;;;10.06;51.56;95255.13;4997190;28;20088;-81
2023/05/12 03:40:17;;;;;;;4.22;3.22;;;;;;;9.85;52.07;95260.16;4997950;28;20034;-81
2023/05/12 03:42:44;;;;;;;3.37;3.00;;;;;;;9.98;51.48;95264.84;4997725;28;20062;-81
2023/05/12 03:45:09;;;;;;;3.72;3.10;;;;;;;10.05;51.57;95258.75;4979505;28;20037;-81
2023/05/12 03:47:35;;;;;;;4.22;3.47;;;;;;;9.91;51.89;95265.72;4996319;28;20269;-80
2023/05/12 03:50:00;;;;;;;3.63;3.30;;;;;;;10.02;51.68;95270.59;4996476;28;20034;-81
2023/05/12 03:52:25;;;;;;;3.38;2.92;;;;;;;9.79;52.21;95260.06;4997368;28;20034;-80
2023/05/12 03:54:51;;;;;;;4.03;3.00;;;;;;;9.91;52.27;95263.91;4996119;28;20061;-80
2023/05/12 03:57:17;;;;;;;3.35;3.05;;;;;;;10.02;51.73;95251.97;4996796;28;20085;-81
2023/05/12 03:59:42;;;;;;;3.75;3.25;;;;;;;10.17;51.42;95253.84;4995506;28;20041;-81
2023/05/12 04:02:10;;;;;;;3.28;2.97;;;;;;;10.15;51.40;95258.53;4994554;28;20554;-81
2023/05/12 04:04:36;;;;;;;3.72;3.00;;;;;;;10.06;51.75;95255.94;4997291;28;20057;-81
2023/05/12 04:07:01;;;;;;;3.13;2.83;;;;;;;9.77;52.36;95238.97;4997304;28;20061;-80
2023/05/12 04:09:29;;;;;;;4.90;2.53;;;;;;;9.66;52.77;95258.81;4995627;28;20041;-81
2023/05/12 04:11:55;;;;;;;2.57;2.37;;;;;;;9.89;52.01;95262.44;4997046;28;20037;-80
2023/05/12 04:14:20;;;;;;;2.70;2.45;;;;;;;9.59;53.08;95263.22;4997208;28;20407;-81
2023/05/12 04:16:45;;;;;;;2.50;2.30;;;;;;;9.93;52.07;95263.72;4997041;28;20510;-80
2023/05/12 04:19:11;;;;;;;5.43;2.40;;;;;;;10.00;52.06;95269.97;4999241;28;20033;-81
2023/05/12 04:21:36;;;;;;;2.42;2.22;;;;;;;9.90;52.31;95278.22;4997575;28;20052;-81
2023/05/12 04:24:02;;;;;;;3.97;2.30;;;;;;;10.06;52.00;95274.56;4998488;28;20022;-81
2023/05/12 04:26:27;;;;;;;2.45;2.00;;;;;;;10.01;52.17;95282.25;4998459;28;20053;-81
2023/05/12 04:28:53;;;;;;;2.50;2.30;;;;;;;9.76;52.70;95279.81;4998017;28;20026;-80
2023/05/12 04:31:18;;;;;;;3.03;2.72;;;;;;;9.77;52.53;95289.47;4997105;28;20475;-81
2023/05/12 04:33:43;;;;;;;3.38;2.80;;;;;;;9.94;52.90;95283.97;4997689;28;20075;-81
2023/05/12 04:36:09;;;;;;;4.10;2.70;;;;;;;9.80;52.67;95297.06;4998178;28;20067;-82
2023/05/12 04:38:35;;;;;;;3.97;2.65;;;;;;;9.61;53.07;95297.56;4998383;28;20502;-81
2023/05/12 04:41:00;;;;;;;3.05;2.75;;;;;;;9.53;53.11;95301.16;4998214;28;20034;-80
2023/05/12 04:43:26;;;;;;;3.75;3.35;;;;;;;9.79;53.01;95300.75;4997943;28;20442;-81
2023/05/12 04:45:54;;;;;;;4.90;3.20;;;;;;;9.85;52.58;95300.03;4982190;28;20342;-80
2023/05/12 04:48:19;;;;;;;5.90;3.47;;;;;;;9.52;53.28;95308.28;4999914;28;20026;-81
2023/05/12 04:50:46;;;;;;;4.80;3.72;;;;;;;9.26;53.86;95304.19;5001213;28;20072;-80
2023/05/12 04:53:12;;;;;;;5.88;4.05;;;;;;;9.73;53.03;95309.44;4997358;28;20106;-80
2023/05/12 04:55:37;;;;;;;4.72;3.60;;;;;;;9.52;53.49;95318.09;4998950;28;20049;-80
2023/05/12 04:58:02;;;;;;;4.25;3.50;;;;;;;9.81;52.71;95330.66;4998818;28;20044;-81
2023/05/12 05:00:28;;;;;;;3.83;3.15;;;;;;;9.73;53.03;95330.72;5002248;28;20038;-80
2023/05/12 05:02:53;;;;;;;5.53;3.80;;;;;;;10.04;52.54;95326.28;4998775;28;20466;-80
2023/05/12 05:05:18;;;;;;;4.20;3.70;;;;;;;9.88;52.77;95321.94;4999243;28;20033;-80
2023/05/12 05:07:44;;;;;;;5.38;3.50;;;;;;;9.97;52.77;95340.28;5000201;28;20022;-80
2023/05/12 05:10:09;;;;;;;6.30;3.65;;;;;;;10.20;52.19;95341.28;5002125;28;20402;-80
2023/05/12 05:12:35;;;;;;;4.57;3.60;;;;;;;9.72;52.87;95342.34;5004936;28;20330;-80
2023/05/12 05:15:00;;;;;;;6.15;3.55;;;;;;;9.70;52.63;95347.81;5000180;28;20066;-80
2023/05/12 05:17:26;;;;;;;6.93;3.67;;;;;;;9.89;52.43;95343.03;5003187;28;20116;-80
2023/05/12 05:19:52;;;;;;;6.78;3.20;;;;;;;9.78;52.57;95351.44;5015670;28;20037;-80
2023/05/12 05:22:17;;;;;;;4.13;3.50;;;;;;;10.10;52.02;95346.88;5013327;28;20034;-80
2023/05/12 05:24:43;;;;;;;5.97;3.60;;;;;;;10.41;51.49;95355.69;4993594;28;20060;-80
2023/05/12 05:27:08;;;;;;;5.18;3.50;;;;;;;10.51;51.19;95348.25;5016640;28;20041;-80
2023/05/12 05:29:33;;;;;;;5.10;3.20;;;;;;;10.62;50.95;95357.59;4996941;28;20038;-80
2023/05/12 05:31:59;;;;;;;3.85;2.90;;;;;;;10.55;51.13;95364.69;5015716;28;20611;-80
2023/05/12 05:34:25;;;;;;;4.45;3.03;;;;;;;10.52;51.38;95371.19;5019212;28;20038;-81
2023/05/12 05:36:50;;;;;;;5.18;2.92;;;;;;;10.66;50.71;95360.72;5019053;28;20042;-80
2023/05/12 05:39:16;;;;;;;4.35;3.05;;;;;;;10.63;50.95;95364.56;5019256;28;20057;-80
2023/05/12 05:41:41;;;;;;;3.97;3.10;;;;;;;11.06;49.95;95369.22;5020072;28;20057;-80
2023/05/12 05:44:06;;;;;;;4.72;2.85;;;;;;;10.89;50.25;95373.94;5019333;28;20533;-81
2023/05/12 05:46:32;;;;;;;6.40;2.70;;;;;;;11.27;49.64;95367.63;5016135;28;20085;-80
2023/05/12 05:48:57;;;;;;;4.30;2.60;;;;;;;11.09;49.87;95371.50;5011015;28;20034;-81
2023/05/12 05:51:23;;;;;;;4.15;2.70;;;;;;;11.24;49.51;95378.66;5021026;28;20022;-80
2023/05/12 05:53:48;;;;;;;4.45;2.40;;;;;;;11.50;49.14;95383.44;5019299;28;20048;-80
2023/05/12 05:56:13;;;;;;;2.83;2.50;;;;;;;11.50;48.94;95383.44;5011227;28;20041;-81
2023/05/12 05:58:39;;;;;;;4.05;2.58;;;;;;;11.55;49.32;95390.03;5005594;28;20092;-81
2023/05/12 06:01:04;;;;;;;2.80;2.47;;;;;;;11.43;48.88;95384.38;5004950;28;20569;-80
2023/05/12 06:03:30;;;;;;;3.33;2.65;;;;;;;11.45;48.83;95388.50;5005060;28;20049;-80
2023/05/12 06:05:55;;;;;;;2.95;2.65;;;;;;;11.51;48.86;95389.59;5003548;28;20067;-81
2023/05/12 06:08:21;;;;;;;2.70;2.50;;;;;;;11.46;49.03;95389.34;4990785;28;20037;-81
2023/05/12 06:10:46;;;;;;;2.40;2.20;;;;;;;11.58;48.41;95397.66;5005727;28;20034;-80
2023/05/12 06:13:11;;;;;;;2.90;2.60;;;;;;;11.69;47.97;95410.50;5019656;28;20045;-81
2023/05/12 06:15:37;;;;;;;2.60;2.40;;;;;;;11.63;48.16;95398.75;5016324;28;20022;-81
2023/05/12 06:18:02;;;;;;;2.65;2.40;;;;;;;11.70;47.98;95408.66;5015944;28;20038;-80
2023/05/12 06:20:28;;;;;;;3.28;2.35;;;;;;;11.80;47.61;95403.81;4999929;28;20018;-81
2023/05/12 06:22:53;;;;;;;4.47;2.40;;;;;;;11.95;47.19;95406.44;5016441;28;20052;-81
2023/05/12 06:25:19;;;;;;;2.38;2.13;;;;;;;11.88;47.65;95406.38;5015388;28;20042;-81
2023/05/12 06:27:44;;;;;;;2.42;2.22;;;;;;;11.88;47.68;95411.72;5012102;28;20045;-81
2023/05/12 06:30:10;;;;;;;2.50;2.30;;;;;;;11.98;47.62;95415.88;5007989;28;20250;-81
2023/05/12 06:32:36;;;;;;;2.85;2.30;;;;;;;12.21;47.24;95414.88;5018636;28;20016;-81
2023/05/12 06:35:01;;;;;;;2.90;2.10;;;;;;;12.23;47.01;95426.16;5022821;28;20055;-81
2023/05/12 06:37:27;;;;;;;2.67;2.30;;;;;;;12.36;47.42;95420.94;5024003;28;20218;-81
2023/05/12 06:39:52;;;;;;;3.78;2.00;;;;;;;12.44;46.76;95419.16;5020773;28;20034;-81
2023/05/12 06:42:17;;;;;;;3.22;2.30;;;;;;;12.65;46.03;95429.75;5013702;28;20045;-81
2023/05/12 06:44:44;;;;;;;3.88;2.30;;;;;;;12.60;46.16;95420.69;5015236;28;20034;-81
2023/05/12 06:47:09;;;;;;;3.42;2.20;;;;;;;12.67;46.26;95425.06;5012469;28;20037;-82
2023/05/12 06:49:36;;;;;;;5.03;2.20;;;;;;;12.78;45.92;95426.34;5013990;28;20541;-82
2023/05/12 06:52:02;;;;;;;2.78;2.40;;;;;;;12.78;46.12;95433.53;5010473;28;20087;-82
2023/05/12 06:54:28;;;;;;;4.93;2.20;;;;;;;12.98;45.83;95430.97;5012021;28;20050;-81
2023/05/12 06:56:53;;;;;;;2.38;2.17;;;;;;;12.97;45.24;95432.00;5011318;28;20046;-81
2023/05/12 06:59:19;;;;;;;2.42;2.22;;;;;;;13.11;45.02;95430.25;5012712;28;20039;-82
2023/05/12 07:01:44;;;;;;;2.47;2.25;;;;;;;13.20;44.81;95435.41;5020366;28;20088;-82
2023/05/12 07:04:09;;;;;;;2.58;2.38;;;;;;;13.23;44.51;95437.69;4986471;28;20046;-64
2023/05/12 07:06:35;;;;;;;2.30;2.10;;;;;;;13.38;44.34;95440.22;4992134;28;20042;-64
2023/05/12 07:09:00;;;;;;;3.90;2.20;;;;;;;13.45;44.48;95438.38;4992553;28;20033;-64
2023/05/12 07:11:26;;;;;;;4.57;2.20;;;;;;;13.53;43.98;95446.22;4996834;28;20026;-64
2023/05/12 07:13:51;;;;;;;4.70;2.53;;;;;;;13.75;44.20;95443.41;4994970;28;20037;-64
2023/05/12 07:16:17;;;;;;;3.47;2.58;;;;;;;13.58;44.25;95448.31;4995499;28;20407;-64
2023/05/12 07:18:42;;;;;;;3.70;2.63;;;;;;;13.65;43.77;95451.81;4994299;28;20327;-64
2023/05/12 07:21:08;;;;;;;3.35;2.88;;;;;;;13.87;43.03;95443.63;4988309;28;23088;-64
2023/05/12 07:23:34;;;;;;;4.30;2.40;;;;;;;13.66;43.56;95452.63;4991158;28;20061;-64
2023/05/12 07:26:01;;;;;;;5.30;3.60;;;;;;;13.90;42.69;95456.63;4994071;28;20344;-64
2023/05/12 07:28:31;;;;;;;4.25;3.20;;;;;;;13.89;43.63;95448.81;4995745;28;20708;-64
2023/05/12 07:30:57;;;;;;;3.53;2.58;;;;;;;14.32;43.53;95442.25;4993652;28;20044;-64
2023/05/12 07:33:23;;;;;;;5.00;3.63;;;;;;;14.53;43.28;95443.91;4993541;28;20554;-64
2023/05/12 07:35:48;;;;;;;4.20;3.33;;;;;;;14.53;42.73;95448.44;4990625;28;20045;-64
2023/05/12 07:38:14;;;;;;;6.75;4.05;;;;;;;14.76;42.29;95455.25;4995115;28;20049;-64
2023/05/12 07:40:39;;;;;;;5.15;4.05;;;;;;;14.88;41.59;95456.25;4992203;28;20041;-64
2023/05/12 07:43:05;;;;;;;6.15;3.50;;;;;;;14.88;41.52;95461.59;4995528;28;20132;-64
2023/05/12 07:45:30;;;;;;;5.68;3.42;;;;;;;14.87;40.56;95459.97;4993909;28;20553;-64
2023/05/12 07:47:55;;;;;;;6.05;4.03;;;;;;;15.02;40.80;95459.72;4992682;28;20048;-64
2023/05/12 07:50:21;;;;;;;3.80;2.30;;;;;;;15.27;41.26;95458.19;4990365;28;20038;-64
2023/05/12 07:52:50;;;;;;;3.63;2.53;;;;;;;15.32;41.11;95455.69;4995483;28;20038;-64
2023/05/12 07:55:16;;;;;;;3.17;2.53;;;;;;;15.68;40.60;95459.72;4990908;28;20600;-65
2023/05/12 07:57:41;;;;;;;7.20;5.28;;;;;;;15.66;40.44;95456.41;4990601;28;20045;-64
2023/05/12 08:00:08;;;;;;;3.42;2.97;;;;;;;15.45;40.00;95463.69;4995832;28;20038;-64
2023/05/12 08:02:35;;;;;;;5.53;3.65;;;;;;;15.69;39.37;95455.97;4991533;28;20053;-65
2023/05/12 08:05:00;;;;;;;4.50;3.08;;;;;;;15.91;38.89;95454.81;4989918;28;20030;-65
2023/05/12 08:07:26;;;;;;;8.75;5.85;;;;;;;15.94;39.40;95460.56;4994547;28;20049;-64
2023/05/12 08:09:51;;;;;;;8.75;6.18;;;;;;;15.95;39.64;95462.22;4991659;28;20034;-65
2023/05/12 08:12:16;;;;;;;7.40;5.63;;;;;;;16.05;39.35;95459.06;4994211;28;20034;-65
2023/05/12 08:14:42;;;;;;;15.93;12.23;;;;;;;15.75;39.57;95457.78;4994888;28;20604;-65
2023/05/12 08:17:07;;;;;;;10.05;7.65;;;;;;;15.28;39.55;95460.66;4995360;28;20034;-64
2023/05/12 08:19:33;;;;;;;24.67;20.58;;;;;;;15.29;38.20;95473.03;4993308;28;20044;-64
2023/05/12 08:21:58;;;;;;;20.30;16.80;;;;;;;15.53;39.67;95467.19;4995400;28;20053;-65
2023/05/12 08:24:24;;;;;;;25.98;19.98;;;;;;;15.69;38.41;95458.66;4990853;28;20042;-65
2023/05/12 08:26:49;;;;;;;15.15;11.15;;;;;;;15.46;38.24;95462.66;4992611;28;20576;-65
2023/05/12 08:29:15;;;;;;;22.70;18.55;;;;;;;15.36;38.42;95459.59;4992660;28;20068;-65
2023/05/12 08:31:40;;;;;;;22.52;14.63;;;;;;;15.50;38.04;95468.41;4992874;28;20370;-64
2023/05/12 08:34:06;;;;;;;17.45;14.30;;;;;;;15.16;38.37;95471.22;4991727;28;20311;-64
2023/05/12 08:36:32;;;;;;;23.88;19.00;;;;;;;15.15;38.72;95466.91;4992599;28;20041;-84
2023/05/12 08:38:57;;;;;;;20.70;14.65;;;;;;;15.04;39.03;95467.53;4990186;28;20050;-84
2023/05/12 08:41:30;;;;;;;21.67;14.65;;;;;;;15.04;38.78;95465.69;4991946;28;20041;-84
2023/05/12 08:43:55;;;;;;;17.75;11.63;;;;;;;15.33;38.70;95463.53;4978301;28;20052;-83
2023/05/12 08:46:21;;;;;;;18.65;14.88;;;;;;;15.33;38.79;95476.94;4979627;28;20042;-84
2023/05/12 08:48:46;;;;;;;12.07;8.30;;;;;;;15.33;38.64;95468.09;4992949;28;20025;-83
2023/05/12 08:51:12;;;;;;;13.98;10.65;;;;;;;15.10;38.72;95474.75;4976525;28;20668;-84
2023/05/12 08:53:39;;;;;;;16.73;13.18;;;;;;;15.21;38.91;95470.59;4997262;28;20120;-83
2023/05/12 08:56:05;;;;;;;19.65;14.15;;;;;;;15.52;38.51;95477.09;5017293;28;20033;-83
2023/05/12 08:58:31;;;;;;;14.15;8.73;;;;;;;14.95;38.95;95474.97;5004313;28;20072;-83
2023/05/12 09:00:58;;;;;;;9.82;6.63;;;;;;;15.56;37.65;95472.13;5002386;28;20029;-84
2023/05/12 09:03:23;;;;;;;14.38;10.35;;;;;;;15.96;36.93;95471.94;4998169;28;20045;-86
2023/05/12 09:05:49;;;;;;;13.48;9.25;;;;;;;16.55;37.36;95467.41;4966828;28;20657;-86
2023/05/12 09:08:14;;;;;;;8.65;6.28;;;;;;;16.40;36.94;95463.19;4983560;28;20044;-85
2023/05/12 09:10:39;;;;;;;13.23;9.57;;;;;;;16.74;35.73;95469.09;4981377;28;20126;-85
2023/05/12 09:13:12;;;;;;;11.25;9.15;;;;;;;17.03;35.77;95468.59;4983944;28;20235;-84
2023/05/12 09:15:39;;;;;;;9.18;6.07;;;;;;;16.67;35.52;95475.56;4998864;28;20025;-85
2023/05/12 09:18:05;;;;;;;11.82;8.45;;;;;;;17.25;34.84;95482.47;5000869;28;20370;-85
2023/05/12 09:20:30;;;;;;;12.55;8.15;;;;;;;17.22;34.58;95474.84;5002335;28;20466;-86
2023/05/12 09:22:57;;;;;;;11.80;7.90;;;;;;;17.15;34.50;95477.63;4983358;28;20042;-85
2023/05/12 09:25:22;;;;;;;10.52;7.20;;;;;;;16.83;34.52;95479.56;5003610;28;20033;-85
2023/05/12 09:27:48;;;;;;;8.15;5.05;;;;;;;17.39;33.92;95483.13;4999068;28;20427;-84
2023/05/12 09:30:14;;;;;;;6.88;4.88;;;;;;;17.09;33.98;95477.63;4963712;28;20603;-84
2023/05/12 09:32:40;;;;;;;10.38;8.05;;;;;;;17.32;34.14;95479.69;4980618;28;20532;-82
2023/05/12 09:35:06;;;;;;;6.78;4.97;;;;;;;16.56;35.04;95487.84;4965928;28;20042;-67
2023/05/12 09:37:33;;;;;;;9.50;6.38;;;;;;;16.82;34.87;95486.78;4996815;28;20454;-67
2023/05/12 09:40:02;;;;;;;9.75;7.70;;;;;;;16.79;34.72;95487.22;4995203;28;20065;-67
2023/05/12 09:42:28;;;;;;;9.43;6.43;;;;;;;17.02;34.87;95491.97;4998097;28;20469;-67
2023/05/12 09:45:08;;;;;;;9.93;8.35;;;;;;;17.22;34.49;95488.28;4996033;28;20113;-67
2023/05/12 09:47:37;;;;;;;9.02;6.82;;;;;;;17.67;34.31;95491.69;4997389;28;20694;-67
2023/05/12 09:50:03;;;;;;;9.57;6.97;;;;;;;17.90;33.59;95495.56;4997684;28;20046;-67
2023/05/12 09:52:31;;;;;;;8.10;5.95;;;;;;;18.08;34.13;95493.91;4994934;28;20018;-69
2023/05/12 09:55:12;;;;;;;8.07;5.95;;;;;;;18.03;32.99;95494.56;4995798;28;20085;-69
2023/05/12 09:57:41;;;;;;;10.30;7.85;;;;;;;18.51;31.96;95498.22;4993615;28;20533;-67
2023/05/12 10:00:08;;;;;;;6.30;3.92;;;;;;;19.07;31.56;95495.22;4995860;28;20153;-68
2023/05/12 10:02:34;;;;;;;7.97;6.40;;;;;;;18.86;31.28;95501.22;4989610;28;20403;-68
2023/05/12 10:05:16;;;;;;;9.88;6.35;;;;;;;19.08;31.77;95496.03;4992071;28;20037;-68
2023/05/12 10:07:43;;;;;;;8.63;5.95;;;;;;;19.01;31.72;95495.34;4996954;28;20167;-68
2023/05/12 10:10:09;;;;;;;9.55;7.70;;;;;;;19.05;30.85;95497.34;4991864;28;20044;-67
2023/05/12 10:12:35;;;;;;;11.43;6.75;;;;;;;19.31;31.40;95497.91;4993766;28;20441;-68
2023/05/12 10:15:01;;;;;;;10.70;7.40;;;;;;;19.18;31.26;95495.44;4992779;28;20053;-67
2023/05/12 10:17:27;;;;;;;10.85;7.72;;;;;;;19.07;31.39;95494.41;4993955;28;20049;-68
2023/05/12 10:19:52;;;;;;;9.55;6.50;;;;;;;19.36;30.90;95499.06;4994163;28;20038;-67
2023/05/12 10:22:18;;;;;;;7.45;5.10;;;;;;;19.49;30.66;95496.13;4994791;28;20053;-67
2023/05/12 10:24:43;;;;;;;6.07;4.72;;;;;;;19.67;30.46;95502.41;4995119;28;20143;-68
2023/05/12 10:27:09;;;;;;;7.53;6.22;;;;;;;19.98;29.99;95492.22;4994788;28;20050;-67
2023/05/12 10:29:34;;;;;;;10.75;7.93;;;;;;;20.25;29.26;95499.72;4990504;28;20045;-67
2023/05/12 10:32:00;;;;;;;9.18;7.18;;;;;;;20.03;29.15;95495.03;4976352;28;20537;-67
2023/05/12 10:34:29;;;;;;;8.88;5.20;;;;;;;20.20;29.52;95500.44;4993567;28;20033;-67
2023/05/12 10:36:56;;;;;;;7.72;5.50;;;;;;;20.30;29.33;95491.72;4992662;28;20038;-68
2023/05/12 10:39:29;;;;;;;4.85;4.05;;;;;;;20.43;29.00;95495.97;4978010;28;20030;-67
2023/05/12 10:42:05;;;;;;;12.52;6.22;;;;;;;20.71;28.99;95490.78;4991744;28;20493;-68
2023/05/12 10:44:30;;;;;;;10.13;7.03;;;;;;;20.67;29.82;95503.16;4992735;28;20141;-68
2023/05/12 10:46:58;;;;;;;7.85;6.45;;;;;;;20.85;29.22;95497.50;4994627;28;20553;-68
2023/05/12 10:49:31;;;;;;;;;;;;;;;21.00;28.25;95496.06;4994249;28;20185;-67
2023/05/12 10:51:58;;;;;;;7.85;5.82;;;;;;;20.76;29.39;95496.28;4996232;28;19944;-67
2023/05/12 10:54:24;;;;;;;8.57;6.35;;;;;;;20.65;28.96;95505.28;4995699;28;20038;-69
2023/05/12 10:56:50;;;;;;;9.55;4.90;;;;;;;20.89;29.31;95499.69;4992457;28;20327;-68
2023/05/12 10:59:21;;;;;;;13.35;9.05;;;;;;;20.93;28.88;95506.25;4994189;28;20036;-69
2023/05/12 11:02:11;;;;;;;10.57;7.82;;;;;;;21.18;27.88;95494.19;4995686;28;20045;-78
2023/05/12 11:04:52;;;;;;;12.07;6.80;;;;;;;21.17;27.99;95489.84;4995979;28;20686;-79
2023/05/12 11:07:28;;;;;;;12.25;8.88;;;;;;;21.01;28.19;95497.75;4993366;28;20054;-78
2023/05/12 11:09:55;;;;;;;15.40;10.52;;;;;;;20.84;28.38;95492.34;4993846;28;20065;-78
2023/05/12 11:12:20;;;;;;;14.52;10.02;;;;;;;20.76;28.65;95501.69;4996091;28;20040;-78
2023/05/12 11:14:45;;;;;;;9.02;6.03;;;;;;;20.76;28.76;95498.97;4994753;28;20438;-79
2023/05/12 11:17:11;;;;;;;7.13;4.88;;;;;;;20.60;29.01;95493.28;4995928;28;20046;-80
2023/05/12 11:19:37;;;;;;;5.97;2.92;;;;;;;21.02;28.74;95495.84;4998533;28;20041;-77
2023/05/12 11:22:06;;;;;;;3.50;2.60;;;;;;;20.99;28.00;95502.56;4996363;28;20422;-78
2023/05/12 11:24:32;;;;;;;7.60;2.92;;;;;;;21.05;27.77;95498.88;4996971;28;20774;-77
2023/05/12 11:26:57;;;;;;;7.00;3.83;;;;;;;21.06;27.71;95507.78;4996110;28;20552;-77
2023/05/12 11:29:23;;;;;;;5.18;2.70;;;;;;;21.04;28.30;95501.84;4995804;28;20030;-77